Time;durP1;ratioP1;P1;durP2;ratioP2;P2;SDS_P1;SDS_P2;PMS_P1;PMS_P2;Temp;Humidity;BMP_temperature;BMP_pressure;BME280_temperature;BME280_humidity;BME280_pressure;Samples;Min_cycle;Max_cycle;Signal;HPM_P1;HPM_P2
2021/12/31 00:01:04;;;;;;;10.20;7.13;;;;;;;4.84;100.00;95068.69;5070639;22;20303;-63
2021/12/31 00:03:29;;;;;;;10.43;7.00;;;;;;;4.96;100.00;95068.00;4988610;28;20260;-60
2021/12/31 00:05:55;;;;;;;10.97;6.93;;;;;;;4.96;100.00;95074.75;4989731;28;20668;-61
2021/12/31 00:08:20;;;;;;;9.67;6.47;;;;;;;4.96;100.00;95069.72;4989649;28;20202;-62
2021/12/31 00:10:46;;;;;;;10.77;7.67;;;;;;;4.93;100.00;95070.69;4989511;28;20209;-62
2021/12/31 00:13:11;;;;;;;10.03;7.10;;;;;;;4.92;100.00;95066.56;4989544;28;20177;-62
2021/12/31 00:15:36;;;;;;;11.00;7.13;;;;;;;4.90;100.00;95075.91;4989382;28;20231;-60
2021/12/31 00:18:02;;;;;;;11.30;7.70;;;;;;;4.89;100.00;95084.34;4989396;28;20548;-60
2021/12/31 00:20:28;;;;;;;11.77;7.47;;;;;;;4.89;100.00;95088.56;4989484;28;20287;-60
2021/12/31 00:23:03;;;;;;;13.03;8.17;;;;;;;4.78;100.00;95088.38;4989381;28;20176;-60
2021/12/31 00:25:30;;;;;;;11.27;8.17;;;;;;;4.83;100.00;95099.81;4989692;28;20168;-59
2021/12/31 00:27:55;;;;;;;13.27;9.13;;;;;;;4.87;100.00;95091.19;4989445;28;20175;-61
2021/12/31 00:30:21;;;;;;;12.43;7.50;;;;;;;4.83;100.00;95076.31;4989351;28;20176;-61
2021/12/31 00:32:48;;;;;;;14.47;8.57;;;;;;;4.80;100.00;95081.53;4989291;28;20262;-62
2021/12/31 00:35:14;;;;;;;14.07;9.33;;;;;;;4.77;100.00;95087.56;4989177;28;20168;-61
2021/12/31 00:37:58;;;;;;;14.63;8.70;;;;;;;4.74;100.00;95087.72;4989822;28;20267;-63
2021/12/31 00:40:25;;;;;;;14.90;8.87;;;;;;;4.73;100.00;95091.13;4989040;28;20188;-63
2021/12/31 00:42:51;;;;;;;14.37;9.00;;;;;;;4.87;100.00;95101.25;4987414;28;20177;-60
2021/12/31 00:45:20;;;;;;;14.57;9.03;;;;;;;4.83;100.00;95104.03;4989100;28;20236;-61
2021/12/31 00:47:47;;;;;;;12.87;9.43;;;;;;;4.79;100.00;95100.03;4989528;28;20191;-61
2021/12/31 00:50:15;;;;;;;13.73;9.40;;;;;;;4.78;100.00;95091.72;4989137;28;20668;-61
2021/12/31 00:52:41;;;;;;;15.70;10.23;;;;;;;4.73;100.00;95086.09;4989729;28;20188;-60
2021/12/31 00:55:08;;;;;;;14.83;8.53;;;;;;;4.73;100.00;95081.06;4989056;28;20231;-63
2021/12/31 00:57:34;;;;;;;16.30;9.23;;;;;;;4.82;100.00;95069.69;4989442;28;20216;-61
2021/12/31 00:59:59;;;;;;;13.97;8.47;;;;;;;4.78;100.00;95061.50;4989053;28;20263;-60
2021/12/31 01:02:28;;;;;;;14.77;9.97;;;;;;;4.86;100.00;95056.84;4989277;28;20220;-63
2021/12/31 01:04:53;;;;;;;15.73;9.93;;;;;;;4.96;100.00;95062.16;4987625;28;20187;-61
2021/12/31 01:07:19;;;;;;;12.40;8.10;;;;;;;5.01;100.00;95066.03;4987719;28;20210;-63
2021/12/31 01:09:45;;;;;;;13.23;7.97;;;;;;;4.92;100.00;95071.59;4989028;28;20180;-60
2021/12/31 01:12:13;;;;;;;15.07;9.97;;;;;;;4.82;100.00;95078.06;4988777;28;20224;-60
2021/12/31 01:15:01;;;;;;;15.03;9.17;;;;;;;4.89;100.00;95071.75;4988903;28;20191;-60
2021/12/31 01:20:08;;;;;;;13.27;9.10;;;;;;;4.83;100.00;95064.53;4988786;28;20194;-61
2021/12/31 01:22:34;;;;;;;14.10;9.57;;;;;;;4.88;100.00;95072.66;4989107;28;20222;-62
2021/12/31 01:25:01;;;;;;;14.47;9.03;;;;;;;4.77;100.00;95071.63;4988647;28;20182;-61
2021/12/31 01:27:26;;;;;;;14.90;9.23;;;;;;;4.74;100.00;95076.84;4988608;28;20334;-62
2021/12/31 01:29:52;;;;;;;11.73;8.10;;;;;;;4.79;100.00;95090.78;4988560;28;20201;-60
2021/12/31 01:32:18;;;;;;;11.37;7.50;;;;;;;4.90;100.00;95101.09;4989128;28;20582;-60
2021/12/31 01:34:44;;;;;;;13.17;7.90;;;;;;;4.82;100.00;95089.81;4987258;28;20187;-60
2021/12/31 01:37:10;;;;;;;11.27;7.60;;;;;;;4.79;100.00;95092.50;4988831;28;20290;-60
2021/12/31 01:39:36;;;;;;;9.80;6.13;;;;;;;4.68;100.00;95100.66;4988393;28;20242;-62
2021/12/31 01:42:06;;;;;;;9.00;6.37;;;;;;;4.69;100.00;95092.19;4988855;28;20207;-61
2021/12/31 01:44:38;;;;;;;10.20;6.20;;;;;;;4.67;100.00;95095.69;4988564;28;20232;-62
2021/12/31 01:47:13;;;;;;;9.10;6.23;;;;;;;4.70;100.00;95082.94;4987351;28;20231;-59
2021/12/31 01:49:42;;;;;;;9.27;6.67;;;;;;;4.61;100.00;95091.81;4987655;28;20181;-62
2021/12/31 01:52:10;;;;;;;9.40;5.60;;;;;;;4.56;100.00;95095.47;4988781;28;20223;-59
2021/12/31 01:54:37;;;;;;;11.87;6.43;;;;;;;4.53;100.00;95106.50;4990266;28;20184;-61
2021/12/31 01:57:08;;;;;;;9.60;6.23;;;;;;;4.53;100.00;95118.28;4991999;28;20207;-62
2021/12/31 01:59:36;;;;;;;10.57;6.07;;;;;;;4.47;100.00;95113.56;4991661;28;20234;-64
2021/12/31 02:02:04;;;;;;;11.80;6.47;;;;;;;4.42;100.00;95116.38;4991660;28;20219;-60
2021/12/31 02:04:30;;;;;;;9.10;6.10;;;;;;;4.43;100.00;95107.09;4990127;28;20695;-61
2021/12/31 02:06:58;;;;;;;8.97;6.33;;;;;;;4.51;100.00;95105.78;4991881;28;20216;-61
2021/12/31 02:09:24;;;;;;;9.40;6.60;;;;;;;4.43;100.00;95107.91;4991348;28;20180;-62
2021/12/31 02:11:53;;;;;;;10.63;6.37;;;;;;;4.48;100.00;95108.47;4991142;28;20269;-61
2021/12/31 02:14:19;;;;;;;11.23;6.40;;;;;;;4.45;100.00;95112.84;4991334;28;20195;-60
2021/12/31 02:16:45;;;;;;;10.03;6.53;;;;;;;4.53;100.00;95114.06;4991878;28;20314;-60
2021/12/31 02:19:16;;;;;;;10.30;6.57;;;;;;;4.50;100.00;95104.19;4991118;28;20248;-61
2021/12/31 02:21:45;;;;;;;11.57;7.07;;;;;;;4.64;100.00;95116.84;4991606;28;20204;-62
2021/12/31 02:24:12;;;;;;;11.43;6.77;;;;;;;4.56;100.00;95121.47;4991292;28;20199;-62
2021/12/31 02:26:38;;;;;;;9.10;6.43;;;;;;;4.52;100.00;95114.16;4991393;28;20545;-61
2021/12/31 02:29:04;;;;;;;9.40;6.47;;;;;;;4.63;100.00;95117.72;4991054;28;20668;-61
2021/12/31 02:31:30;;;;;;;11.67;6.53;;;;;;;4.58;100.00;95124.72;4991331;28;20212;-62
2021/12/31 02:33:56;;;;;;;12.57;6.67;;;;;;;4.64;100.00;95119.34;4989859;28;20192;-59
2021/12/31 02:36:21;;;;;;;10.53;6.83;;;;;;;4.48;100.00;95113.50;4991195;28;20208;-61
2021/12/31 02:38:47;;;;;;;10.87;6.87;;;;;;;4.45;100.00;95112.84;4990982;28;20690;-63
2021/12/31 02:41:13;;;;;;;10.47;6.60;;;;;;;4.46;100.00;95110.28;4991189;28;20222;-62
2021/12/31 02:43:39;;;;;;;9.80;5.97;;;;;;;4.48;100.00;95107.66;4991019;28;20230;-61
2021/12/31 02:46:05;;;;;;;10.67;7.00;;;;;;;4.59;100.00;95120.47;4991280;28;20247;-64
2021/12/31 02:48:30;;;;;;;11.77;7.00;;;;;;;4.54;100.00;95120.75;4990839;28;20185;-62
2021/12/31 02:50:58;;;;;;;9.20;5.83;;;;;;;4.57;100.00;95135.66;4991079;28;20312;-61
2021/12/31 02:53:35;;;;;;;10.50;6.40;;;;;;;4.52;100.00;95139.31;4990843;28;20217;-60
2021/12/31 02:56:09;;;;;;;10.20;7.10;;;;;;;4.51;100.00;95133.47;4990880;28;20268;-62
2021/12/31 02:58:36;;;;;;;9.80;6.67;;;;;;;4.55;100.00;95137.44;4990711;28;20273;-61
2021/12/31 03:01:03;;;;;;;9.40;6.80;;;;;;;4.64;100.00;95144.53;4990572;28;20211;-60
2021/12/31 03:03:32;;;;;;;9.67;6.23;;;;;;;4.62;100.00;95146.31;4990375;28;20340;-61
2021/12/31 03:05:58;;;;;;;7.50;4.97;;;;;;;4.54;100.00;95140.06;4990495;28;20208;-60
2021/12/31 03:08:27;;;;;;;9.87;6.50;;;;;;;4.59;100.00;95141.44;4990865;28;20180;-61
2021/12/31 03:11:14;;;;;;;8.50;5.73;;;;;;;4.48;100.00;95138.69;4990622;28;20208;-60
2021/12/31 03:13:40;;;;;;;10.10;5.87;;;;;;;4.43;100.00;95135.59;4990479;28;20179;-62
2021/12/31 03:16:07;;;;;;;8.33;5.67;;;;;;;4.53;100.00;95154.34;4990536;28;20287;-60
2021/12/31 03:18:32;;;;;;;7.67;5.67;;;;;;;4.45;100.00;95156.44;4989052;28;20207;-59
2021/12/31 03:21:04;;;;;;;8.80;5.60;;;;;;;4.42;100.00;95159.16;4990392;28;20300;-60
2021/12/31 03:23:31;;;;;;;8.67;6.40;;;;;;;4.40;100.00;95168.47;4990383;28;20172;-59
2021/12/31 03:25:56;;;;;;;8.87;5.80;;;;;;;4.48;100.00;95163.84;4990542;28;20217;-61
2021/12/31 03:28:22;;;;;;;7.93;5.50;;;;;;;4.45;100.00;95166.53;4990568;28;20187;-61
2021/12/31 03:30:48;;;;;;;8.60;5.53;;;;;;;4.37;100.00;95176.19;4990339;28;20264;-60
2021/12/31 03:33:15;;;;;;;8.57;5.93;;;;;;;4.70;100.00;95168.56;4990071;28;20180;-59
2021/12/31 03:35:40;;;;;;;8.10;5.70;;;;;;;4.50;100.00;95172.13;4990359;28;20645;-63
2021/12/31 03:38:06;;;;;;;8.00;5.23;;;;;;;4.44;100.00;95176.69;4990011;28;20295;-59
2021/12/31 03:40:32;;;;;;;8.07;4.83;;;;;;;4.36;100.00;95172.06;4989859;28;20183;-59
2021/12/31 03:42:57;;;;;;;8.47;5.07;;;;;;;4.31;100.00;95171.47;4990022;28;20184;-61
2021/12/31 03:45:23;;;;;;;8.13;4.83;;;;;;;4.39;100.00;95186.97;4988589;28;20582;-60
2021/12/31 03:47:48;;;;;;;6.90;4.87;;;;;;;4.42;100.00;95193.56;4990212;28;20180;-61
2021/12/31 03:50:14;;;;;;;8.17;5.43;;;;;;;4.36;100.00;95184.63;4989841;28;20554;-62
2021/12/31 03:52:40;;;;;;;7.70;5.13;;;;;;;4.45;100.00;95194.22;4990298;28;20673;-61
2021/12/31 03:55:07;;;;;;;7.27;5.30;;;;;;;4.40;100.00;95196.16;4990052;28;20266;-60
2021/12/31 03:57:33;;;;;;;7.03;4.40;;;;;;;4.24;100.00;95191.09;4990433;28;20210;-60
2021/12/31 03:59:58;;;;;;;5.97;3.87;;;;;;;4.23;100.00;95194.50;4989957;28;20294;-60
2021/12/31 04:02:24;;;;;;;7.17;4.80;;;;;;;4.25;100.00;95196.94;4990110;28;20632;-63
2021/12/31 04:04:49;;;;;;;7.87;4.20;;;;;;;4.25;100.00;95199.47;4988441;28;20191;-61
2021/12/31 04:07:15;;;;;;;6.87;4.47;;;;;;;4.18;100.00;95193.13;4990103;28;20260;-60
2021/12/31 04:09:40;;;;;;;7.90;5.00;;;;;;;4.19;100.00;95189.72;4989926;28;20192;-62
2021/12/31 04:12:07;;;;;;;8.03;4.93;;;;;;;4.11;100.00;95186.78;4988670;28;20212;-61
2021/12/31 04:14:32;;;;;;;6.93;5.17;;;;;;;4.10;100.00;95177.63;4989900;28;20669;-61
2021/12/31 04:16:58;;;;;;;5.50;3.80;;;;;;;4.06;100.00;95183.69;4994184;23;20239;-60
2021/12/31 04:19:23;;;;;;;7.87;3.97;;;;;;;4.03;100.00;95198.94;4989588;28;20207;-62
2021/12/31 04:21:50;;;;;;;5.60;3.50;;;;;;;4.02;100.00;95189.78;4989404;28;20279;-59
2021/12/31 04:24:28;;;;;;;6.53;3.93;;;;;;;3.91;100.00;95182.78;4989534;28;20180;-61
2021/12/31 04:26:55;;;;;;;6.77;4.67;;;;;;;3.92;100.00;95173.53;4989617;28;20204;-60
2021/12/31 04:29:20;;;;;;;6.37;4.17;;;;;;;4.05;100.00;95169.47;4989360;28;20191;-60
2021/12/31 04:31:46;;;;;;;6.27;4.50;;;;;;;4.17;100.00;95176.41;4989452;28;20205;-61
2021/12/31 04:34:11;;;;;;;7.63;4.77;;;;;;;4.02;100.00;95179.72;4989398;28;20191;-61
2021/12/31 04:36:37;;;;;;;6.63;4.13;;;;;;;4.22;100.00;95189.56;4989656;28;20219;-62
2021/12/31 04:39:03;;;;;;;8.87;5.73;;;;;;;4.16;100.00;95190.69;4987761;28;20325;-60
2021/12/31 04:41:28;;;;;;;7.93;4.83;;;;;;;4.11;100.00;95186.78;4989805;28;20738;-60
2021/12/31 04:43:54;;;;;;;10.37;5.33;;;;;;;4.02;100.00;95187.25;4989103;28;20176;-63
2021/12/31 04:46:19;;;;;;;7.47;5.07;;;;;;;4.02;100.00;95182.22;4989481;28;20269;-64
2021/12/31 04:48:45;;;;;;;10.40;5.77;;;;;;;3.94;100.00;95197.69;4989320;28;20223;-60
2021/12/31 04:51:10;;;;;;;7.53;5.33;;;;;;;4.15;100.00;95198.31;4989630;28;20210;-62
2021/12/31 04:53:36;;;;;;;8.60;5.03;;;;;;;4.22;100.00;95207.19;4989188;28;20199;-60
2021/12/31 04:56:02;;;;;;;8.03;4.60;;;;;;;4.54;100.00;95211.34;4989589;28;20219;-62
2021/12/31 04:58:28;;;;;;;8.20;4.97;;;;;;;4.37;100.00;95211.41;4988939;28;20240;-63
2021/12/31 05:00:53;;;;;;;8.20;5.60;;;;;;;4.20;100.00;95198.91;4989374;28;20227;-62
2021/12/31 05:03:20;;;;;;;7.63;4.90;;;;;;;4.05;100.00;95185.41;4988972;28;20180;-61
2021/12/31 05:05:45;;;;;;;9.13;5.50;;;;;;;4.25;100.00;95187.69;4988003;28;20212;-62
2021/12/31 05:08:11;;;;;;;8.30;5.73;;;;;;;4.31;100.00;95193.28;4988932;28;20297;-61
2021/12/31 05:10:37;;;;;;;10.07;5.23;;;;;;;4.18;100.00;95195.66;4989334;28;20211;-60
2021/12/31 05:13:04;;;;;;;9.03;5.47;;;;;;;3.98;100.00;95191.59;4988841;28;20555;-62
2021/12/31 05:15:34;;;;;;;8.40;5.43;;;;;;;4.03;100.00;95191.38;4987306;28;20256;-61
2021/12/31 05:18:00;;;;;;;7.97;5.13;;;;;;;4.26;100.00;95203.63;4989122;28;20215;-62
2021/12/31 05:20:26;;;;;;;8.17;5.00;;;;;;;4.46;100.00;95200.88;4989118;28;20229;-62
2021/12/31 05:22:52;;;;;;;7.63;4.93;;;;;;;4.43;100.00;95205.25;4988675;28;20207;-61
2021/12/31 05:25:18;;;;;;;8.23;4.90;;;;;;;4.36;100.00;95199.72;4987476;28;20276;-61
2021/12/31 05:27:44;;;;;;;6.27;4.73;;;;;;;4.59;100.00;95213.63;4989251;28;20662;-59
2021/12/31 05:30:10;;;;;;;6.07;4.07;;;;;;;4.91;100.00;95223.59;4992043;28;20210;-58
2021/12/31 05:32:35;;;;;;;9.17;4.80;;;;;;;4.87;100.00;95226.38;4990583;28;20257;-60
2021/12/31 05:35:00;;;;;;;11.03;4.70;;;;;;;4.69;100.00;95214.75;4992068;28;20322;-62
2021/12/31 05:37:26;;;;;;;5.53;4.27;;;;;;;4.90;100.00;95221.19;4991710;28;20199;-62
2021/12/31 05:39:51;;;;;;;5.17;3.90;;;;;;;4.91;100.00;95221.09;4992062;28;20229;-62
2021/12/31 05:42:17;;;;;;;7.13;4.57;;;;;;;4.97;100.00;95243.44;4991823;28;20207;-59
2021/12/31 05:44:42;;;;;;;7.60;5.00;;;;;;;4.74;100.00;95220.38;4992070;28;20626;-61
2021/12/31 05:47:08;;;;;;;7.23;4.83;;;;;;;4.67;100.00;95211.50;4990366;28;20199;-60
2021/12/31 05:49:33;;;;;;;12.57;7.27;;;;;;;4.36;100.00;95197.22;4990444;28;20256;-61
2021/12/31 05:51:59;;;;;;;7.50;4.97;;;;;;;4.10;100.00;95190.19;4991760;28;20204;-62
2021/12/31 05:54:24;;;;;;;10.93;5.53;;;;;;;4.33;100.00;95204.09;4991738;28;20181;-60
2021/12/31 05:56:51;;;;;;;8.23;5.13;;;;;;;4.44;100.00;95215.25;4991477;28;20250;-60
2021/12/31 05:59:17;;;;;;;6.43;4.47;;;;;;;4.71;100.00;95235.63;4991763;28;20205;-60
2021/12/31 06:01:42;;;;;;;8.10;4.73;;;;;;;4.70;100.00;95234.84;4991543;28;20216;-60
2021/12/31 06:04:08;;;;;;;5.63;4.13;;;;;;;4.63;100.00;95237.72;4990412;28;20191;-59
2021/12/31 06:06:33;;;;;;;8.03;4.87;;;;;;;4.75;100.00;95216.94;4991222;28;20258;-61
2021/12/31 06:08:59;;;;;;;6.93;5.27;;;;;;;4.51;100.00;95231.66;4990245;28;20191;-61
2021/12/31 06:11:24;;;;;;;9.43;5.97;;;;;;;4.38;100.00;95228.16;4974373;28;20592;-62
2021/12/31 06:14:00;;;;;;;7.43;5.00;;;;;;;4.38;100.00;95237.41;4991370;28;20198;-61
2021/12/31 06:16:25;;;;;;;7.27;4.90;;;;;;;4.28;100.00;95227.78;4991901;28;20625;-63
2021/12/31 06:18:51;;;;;;;7.43;5.43;;;;;;;4.11;100.00;95215.28;4991585;28;20283;-60
2021/12/31 06:21:16;;;;;;;10.33;5.50;;;;;;;4.59;100.00;95226.19;4991743;28;20211;-62
2021/12/31 06:23:41;;;;;;;10.27;5.13;;;;;;;4.93;100.00;95231.91;4991251;28;20238;-61
2021/12/31 06:26:07;;;;;;;7.03;4.47;;;;;;;5.22;100.00;95232.84;4991616;28;20205;-61
2021/12/31 06:28:32;;;;;;;7.43;5.10;;;;;;;5.26;100.00;95246.91;4991166;28;20185;-61
2021/12/31 06:30:58;;;;;;;7.63;5.17;;;;;;;5.36;100.00;95258.13;4991611;28;20209;-61
2021/12/31 06:33:23;;;;;;;8.07;5.33;;;;;;;5.40;100.00;95268.81;4991165;28;20546;-61
2021/12/31 06:35:49;;;;;;;8.93;5.70;;;;;;;5.39;100.00;95252.91;4991356;28;20207;-62
2021/12/31 06:38:14;;;;;;;9.37;5.87;;;;;;;5.17;100.00;95254.97;4991064;28;20203;-61
2021/12/31 06:40:40;;;;;;;9.20;5.17;;;;;;;5.19;100.00;95267.50;4990547;28;20293;-60
2021/12/31 06:43:05;;;;;;;8.60;5.27;;;;;;;4.99;100.00;95258.47;4989845;28;20760;-58
2021/12/31 06:45:30;;;;;;;8.30;6.17;;;;;;;4.83;100.00;95261.00;4991221;28;20196;-59
2021/12/31 06:47:56;;;;;;;8.33;5.33;;;;;;;4.69;100.00;95265.09;4991238;28;20193;-62
2021/12/31 06:50:22;;;;;;;8.23;5.57;;;;;;;4.77;100.00;95260.50;4990982;28;20226;-61
2021/12/31 06:52:48;;;;;;;7.87;5.50;;;;;;;5.10;100.00;95279.69;4990857;28;20611;-61
2021/12/31 06:55:13;;;;;;;10.13;5.97;;;;;;;5.07;100.00;95272.28;4990951;28;20229;-61
2021/12/31 06:57:39;;;;;;;8.17;5.77;;;;;;;5.35;100.00;95265.75;4990950;28;20191;-60
2021/12/31 07:00:07;;;;;;;9.40;5.73;;;;;;;5.50;100.00;95258.16;4990964;28;20222;-59
2021/12/31 07:02:32;;;;;;;8.80;5.80;;;;;;;5.76;100.00;95284.44;4990685;28;20209;-60
2021/12/31 07:04:58;;;;;;;8.63;5.77;;;;;;;5.84;100.00;95274.78;4990482;28;20521;-59
2021/12/31 07:07:23;;;;;;;7.70;5.23;;;;;;;5.57;100.00;95273.78;4990544;28;20290;-59
2021/12/31 07:09:49;;;;;;;8.63;5.60;;;;;;;5.45;100.00;95262.66;4990579;28;20197;-61
2021/12/31 07:12:14;;;;;;;10.57;6.13;;;;;;;5.58;100.00;95281.25;4990620;28;20206;-62
2021/12/31 07:14:40;;;;;;;7.90;5.53;;;;;;;5.56;100.00;95283.03;4990785;28;20211;-62
2021/12/31 07:17:05;;;;;;;7.93;5.07;;;;;;;5.84;100.00;95282.34;4990669;28;20670;-60
2021/12/31 07:19:31;;;;;;;7.37;4.80;;;;;;;6.18;100.00;95302.25;4990208;28;20210;-63
2021/12/31 07:21:56;;;;;;;8.37;5.53;;;;;;;6.39;100.00;95325.44;4990521;28;20237;-61
2021/12/31 07:24:22;;;;;;;9.93;5.67;;;;;;;6.36;100.00;95302.91;4990158;28;20662;-63
2021/12/31 07:26:47;;;;;;;9.17;5.87;;;;;;;6.48;100.00;95292.91;4990145;28;20206;-59
2021/12/31 07:29:13;;;;;;;8.30;6.17;;;;;;;6.55;100.00;95294.16;4990571;28;20190;-63
2021/12/31 07:31:39;;;;;;;7.97;5.57;;;;;;;6.86;100.00;95320.13;4990589;28;20281;-62
2021/12/31 07:34:04;;;;;;;9.03;5.67;;;;;;;6.98;100.00;95310.13;4990332;28;20190;-60
2021/12/31 07:36:30;;;;;;;6.57;5.03;;;;;;;7.00;100.00;95308.31;4990663;28;20235;-60
2021/12/31 07:39:01;;;;;;;9.13;6.40;;;;;;;7.07;100.00;95322.19;4990136;28;20291;-62
2021/12/31 07:41:27;;;;;;;9.37;5.83;;;;;;;7.12;100.00;95315.16;4989000;28;20221;-60
2021/12/31 07:43:53;;;;;;;8.57;5.27;;;;;;;7.20;100.00;95342.50;4990167;28;20187;-61
2021/12/31 07:46:18;;;;;;;7.80;5.83;;;;;;;6.98;100.00;95301.72;4990403;28;20219;-61
2021/12/31 07:48:44;;;;;;;8.27;5.60;;;;;;;6.99;100.00;95296.56;4989947;28;20193;-59
2021/12/31 07:51:09;;;;;;;11.90;6.60;;;;;;;6.93;100.00;95286.03;4988893;28;20217;-61
2021/12/31 07:53:35;;;;;;;9.70;5.77;;;;;;;7.15;100.00;95319.22;4989684;28;20187;-63
2021/12/31 07:56:00;;;;;;;12.97;6.83;;;;;;;6.99;100.00;95313.47;4990183;28;20638;-61
2021/12/31 07:58:27;;;;;;;12.27;7.03;;;;;;;6.87;100.00;95281.34;4989918;28;20237;-59
2021/12/31 08:00:53;;;;;;;13.57;7.20;;;;;;;6.95;100.00;95282.50;4988446;28;20223;-61
2021/12/31 08:03:18;;;;;;;10.77;6.93;;;;;;;6.94;100.00;95290.16;4989733;28;20194;-62
2021/12/31 08:05:44;;;;;;;10.57;7.57;;;;;;;6.96;100.00;95306.06;4989969;28;20210;-59
2021/12/31 08:08:09;;;;;;;12.87;7.80;;;;;;;6.75;100.00;95310.66;4989528;28;20570;-60
2021/12/31 08:10:37;;;;;;;13.47;8.57;;;;;;;6.68;100.00;95305.19;4989764;28;20218;-60
2021/12/31 08:13:03;;;;;;;11.53;7.97;;;;;;;6.67;100.00;95298.50;4989483;28;20186;-60
2021/12/31 08:15:29;;;;;;;14.10;8.87;;;;;;;6.74;100.00;95301.47;4989558;28;20572;-61
2021/12/31 08:17:54;;;;;;;13.00;8.43;;;;;;;6.83;100.00;95295.06;4989399;28;20266;-61
2021/12/31 08:20:21;;;;;;;14.20;8.77;;;;;;;6.97;100.00;95327.91;4989468;28;20194;-62
2021/12/31 08:22:46;;;;;;;16.37;8.90;;;;;;;7.13;100.00;95339.50;4989411;28;20667;-58
2021/12/31 08:25:19;;;;;;;13.57;9.10;;;;;;;7.20;100.00;95332.38;4989460;28;20194;-61
2021/12/31 08:27:45;;;;;;;16.17;9.37;;;;;;;7.15;100.00;95312.41;4989435;28;20629;-60
2021/12/31 08:30:17;;;;;;;17.73;9.83;;;;;;;7.15;100.00;95302.31;4989477;28;20187;-61
2021/12/31 08:32:42;;;;;;;17.37;9.87;;;;;;;7.11;100.00;95290.75;4988021;28;20194;-61
2021/12/31 08:35:08;;;;;;;18.13;9.77;;;;;;;7.35;100.00;95306.16;4971713;28;20193;-61
2021/12/31 08:37:35;;;;;;;17.60;10.60;;;;;;;7.64;100.00;95305.16;4989357;28;20217;-61
2021/12/31 08:40:00;;;;;;;18.33;11.50;;;;;;;7.88;100.00;95333.97;4989247;28;20239;-62
2021/12/31 08:42:26;;;;;;;17.87;10.97;;;;;;;8.04;100.00;95326.25;4989450;28;20235;-62
2021/12/31 08:44:52;;;;;;;15.80;10.30;;;;;;;8.15;100.00;95337.28;4989376;28;20617;-62
2021/12/31 08:47:18;;;;;;;18.73;9.90;;;;;;;8.29;100.00;95324.59;4987546;28;20230;-63
2021/12/31 08:49:43;;;;;;;14.10;9.83;;;;;;;8.56;100.00;95321.97;4989014;28;20207;-63
2021/12/31 08:52:09;;;;;;;14.67;9.67;;;;;;;8.87;100.00;95361.28;4988852;28;20211;-63
2021/12/31 08:54:35;;;;;;;19.37;10.53;;;;;;;9.35;100.00;95380.81;4989076;28;20180;-63
2021/12/31 08:57:01;;;;;;;16.77;9.67;;;;;;;9.73;100.00;95384.06;4987617;28;20710;-60
2021/12/31 08:59:27;;;;;;;13.17;7.97;;;;;;;9.88;99.41;95398.22;4988664;28;20203;-59
2021/12/31 09:01:53;;;;;;;9.47;7.20;;;;;;;10.05;97.64;95400.41;4988765;28;20392;-61
2021/12/31 09:04:18;;;;;;;11.70;7.73;;;;;;;10.33;96.27;95401.00;4991682;28;20745;-60
2021/12/31 09:06:44;;;;;;;12.60;9.10;;;;;;;10.47;95.57;95395.72;4992156;28;20211;-59
2021/12/31 09:09:09;;;;;;;13.63;8.67;;;;;;;10.84;93.93;95415.00;4992398;28;20184;-61
2021/12/31 09:11:35;;;;;;;13.10;7.90;;;;;;;11.12;93.00;95417.13;4992630;28;20207;-59
2021/12/31 09:14:00;;;;;;;12.10;8.43;;;;;;;11.31;92.32;95407.19;4992321;28;20184;-60
2021/12/31 09:16:26;;;;;;;11.37;7.33;;;;;;;11.49;91.68;95412.63;4992727;28;20207;-61
2021/12/31 09:18:52;;;;;;;12.03;7.27;;;;;;;11.64;91.49;95404.63;4992268;28;20239;-61
2021/12/31 09:21:17;;;;;;;11.77;6.53;;;;;;;11.70;91.47;95401.63;4992612;28;20685;-61
2021/12/31 09:23:47;;;;;;;10.00;6.80;;;;;;;12.13;87.73;95469.66;4990908;28;20207;-61
2021/12/31 09:26:15;;;;;;;8.40;6.43;;;;;;;11.99;88.31;95447.81;4992658;28;20228;-61
2021/12/31 09:28:40;;;;;;;11.23;6.60;;;;;;;11.99;88.81;95414.66;4992183;28;20186;-60
2021/12/31 09:31:08;;;;;;;10.70;6.40;;;;;;;12.33;86.57;95441.69;4990881;28;20211;-62
2021/12/31 09:33:34;;;;;;;7.20;5.30;;;;;;;12.62;84.46;95485.28;4991853;28;20184;-62
2021/12/31 09:36:00;;;;;;;9.53;5.77;;;;;;;12.90;84.31;95473.69;4992261;28;20287;-60
2021/12/31 09:38:26;;;;;;;9.60;6.37;;;;;;;12.99;83.42;95472.94;4991941;28;20740;-63
2021/12/31 09:40:53;;;;;;;10.40;7.13;;;;;;;12.57;85.08;95423.63;4992275;28;20686;-62
2021/12/31 09:43:19;;;;;;;7.27;5.23;;;;;;;12.75;84.17;95437.44;4991935;28;20180;-62
2021/12/31 09:45:47;;;;;;;10.10;7.10;;;;;;;12.64;85.57;95414.56;4990592;28;20666;-61
2021/12/31 09:48:21;;;;;;;9.27;6.40;;;;;;;12.74;78.26;95420.53;4992027;28;20184;-63
2021/12/31 09:50:49;;;;;;;9.63;6.70;;;;;;;12.79;76.15;95408.19;4992139;28;20685;-60
2021/12/31 09:53:16;;;;;;;10.13;6.07;;;;;;;12.36;74.11;95405.72;4992026;28;20613;-62
2021/12/31 09:55:46;;;;;;;10.63;5.73;;;;;;;12.58;75.15;95374.22;4991584;28;20357;-60
2021/12/31 09:58:15;;;;;;;28.37;6.23;;;;;;;12.66;76.43;95323.41;4991626;28;20239;-60
2021/12/31 10:00:44;;;;;;;8.07;5.37;;;;;;;12.95;76.68;95331.22;4991746;28;20561;-61
2021/12/31 10:03:17;;;;;;;10.20;6.40;;;;;;;13.15;71.26;95410.31;4991746;28;20278;-60
2021/12/31 10:05:48;;;;;;;8.77;5.47;;;;;;;13.70;70.07;95433.78;5007957;22;20715;-63
2021/12/31 10:08:31;;;;;;;10.27;6.43;;;;;;;14.01;69.58;95435.38;5094139;28;20226;-62
2021/12/31 10:11:05;;;;;;;9.30;6.10;;;;;;;14.27;66.56;95482.53;5092816;28;20506;-63
2021/12/31 10:13:32;;;;;;;11.63;6.10;;;;;;;14.25;65.58;95476.75;5094193;28;20667;-61
2021/12/31 10:15:58;;;;;;;10.57;6.60;;;;;;;14.41;63.99;95492.41;5091566;28;20227;-62
2021/12/31 10:18:37;;;;;;;11.33;6.63;;;;;;;14.65;63.17;95494.59;5094152;28;20195;-62
2021/12/31 10:21:04;;;;;;;9.97;6.73;;;;;;;14.24;64.08;95457.25;5092923;28;20233;-62
2021/12/31 10:23:31;;;;;;;12.60;7.13;;;;;;;14.70;63.36;95475.34;5094192;28;20631;-63
2021/12/31 10:26:17;;;;;;;13.20;7.63;;;;;;;15.04;63.37;95453.50;5094065;28;20650;-64
2021/12/31 10:28:55;;;;;;;16.27;7.43;;;;;;;14.51;64.15;95429.28;5093955;28;20160;-61
2021/12/31 10:31:20;;;;;;;8.83;6.70;;;;;;;14.62;62.68;95447.06;5093941;28;20210;-62
2021/12/31 10:33:48;;;;;;;9.80;6.97;;;;;;;14.78;63.48;95436.28;5093697;28;20180;-61
2021/12/31 10:36:37;;;;;;;13.43;7.17;;;;;;;14.40;64.29;95397.91;5093707;28;20285;-63
2021/12/31 10:39:23;;;;;;;10.40;7.20;;;;;;;14.38;63.99;95397.22;5093399;28;20208;-62
2021/12/31 10:41:50;;;;;;;14.17;7.37;;;;;;;14.89;63.16;95411.31;5093695;28;20204;-62
2021/12/31 10:44:16;;;;;;;7.80;5.97;;;;;;;14.88;62.41;95425.09;5093757;28;20287;-61
2021/12/31 10:46:42;;;;;;;16.20;7.37;;;;;;;15.33;61.78;95444.94;5092332;28;20547;-60
2021/12/31 10:49:11;;;;;;;9.53;7.43;;;;;;;15.52;61.02;95450.03;5093375;28;20313;-62
2021/12/31 10:51:46;;;;;;;10.18;6.97;;;;;;;15.28;61.21;95430.00;5092060;28;20196;-60
2021/12/31 10:54:32;;;;;;;8.60;6.30;;;;;;;15.77;60.59;95445.09;5092572;28;20581;-60
2021/12/31 10:56:58;;;;;;;8.10;5.93;;;;;;;16.03;59.60;95447.78;5093547;28;20219;-61
2021/12/31 10:59:24;;;;;;;8.57;6.07;;;;;;;15.58;61.17;95405.91;5093340;28;20577;-61
2021/12/31 11:01:51;;;;;;;7.38;5.75;;;;;;;15.98;60.54;95423.53;5093431;28;20209;-62
2021/12/31 11:04:21;;;;;;;9.30;6.50;;;;;;;15.55;60.41;95416.44;5093095;28;20253;-60
2021/12/31 11:06:47;;;;;;;12.85;6.30;;;;;;;15.74;59.72;95421.47;5093306;28;20298;-61
2021/12/31 11:09:14;;;;;;;7.65;5.88;;;;;;;15.42;61.86;95369.78;5093030;28;20176;-61
2021/12/31 11:11:44;;;;;;;9.32;5.35;;;;;;;14.42;65.67;95286.03;5093030;28;20227;-61
2021/12/31 11:14:11;;;;;;;6.82;5.70;;;;;;;14.32;65.47;95288.59;5093368;28;20648;-60
2021/12/31 11:16:39;;;;;;;6.32;5.07;;;;;;;14.07;67.08;95256.69;5092747;28;20211;-61
2021/12/31 11:19:05;;;;;;;6.40;4.83;;;;;;;14.24;67.72;95250.88;5092948;28;20313;-61
2021/12/31 11:21:32;;;;;;;10.03;5.60;;;;;;;13.98;67.93;95254.94;5093087;28;20201;-60
2021/12/31 11:24:26;;;;;;;6.17;4.47;;;;;;;14.11;68.11;95241.88;5091766;28;20650;-65
2021/12/31 11:26:51;;;;;;;16.00;5.93;;;;;;;13.12;70.64;95180.81;5090822;28;20212;-63
2021/12/31 11:29:35;;;;;;;6.77;5.30;;;;;;;12.83;72.85;95148.47;5092023;28;20202;-63
2021/12/31 11:32:00;;;;;;;10.20;6.47;;;;;;;12.76;73.43;95157.63;5091560;28;20295;-62